Time;durP1;ratioP1;P1;durP2;ratioP2;P2;SDS_P1;SDS_P2;PMS_P1;PMS_P2;Temp;Humidity;BMP_temperature;BMP_pressure;BME280_temperature;BME280_humidity;BME280_pressure;Samples;Min_cycle;Max_cycle;Signal;HPM_P1;HPM_P2
2023/08/12 00:00:56;;;;;;;;;;;;;;;17.86;45.94;101136.94;5077191;28;1110;-50
2023/08/12 00:03:22;;;;;;;;;;;;;;;17.60;45.73;101145.16;5096212;28;1974;-52
2023/08/12 00:05:47;;;;;;;;;;;;;;;17.53;45.38;101139.91;5085685;28;1114;-46
2023/08/12 00:08:13;;;;;;;;;;;;;;;17.38;45.10;101143.44;5077475;28;1094;-53
2023/08/12 00:10:38;;;;;;;;;;;;;;;17.35;44.87;101143.97;5089072;28;1026;-48
2023/08/12 00:13:04;;;;;;;;;;;;;;;18.08;45.64;101140.28;5079387;28;1199;-51
2023/08/12 00:15:30;;;;;;;;;;;;;;;17.67;46.08;101134.72;5077011;28;984;-52
2023/08/12 00:17:55;;;;;;;;;;;;;;;17.58;45.52;101130.84;5077270;28;1027;-50
2023/08/12 00:20:21;;;;;;;;;;;;;;;17.45;45.40;101122.00;5086631;28;972;-49
2023/08/12 00:22:46;;;;;;;;;;;;;;;17.43;45.07;101118.72;5094786;28;1909;-51
2023/08/12 00:25:12;;;;;;;;;;;;;;;17.35;45.30;101121.16;5086299;28;1205;-53
2023/08/12 00:27:37;;;;;;;;;;;;;;;17.37;45.03;101125.28;5094987;28;1102;-52
2023/08/12 00:30:04;;;;;;;;;;;;;;;17.27;45.18;101119.75;5085940;28;1102;-52
2023/08/12 00:32:30;;;;;;;;;;;;;;;17.36;44.66;101120.06;5094604;28;1126;-50
2023/08/12 00:34:56;;;;;;;;;;;;;;;17.38;45.10;101107.69;5078724;28;1394;-52
2023/08/12 00:37:21;;;;;;;;;;;;;;;17.92;46.26;101108.34;5074360;28;1196;-52
2023/08/12 00:39:47;;;;;;;;;;;;;;;17.66;46.16;101111.06;5088509;28;1123;-52
2023/08/12 00:42:13;;;;;;;;;;;;;;;17.40;46.16;101113.75;5065176;28;1902;-53
2023/08/12 00:44:38;;;;;;;;;;;;;;;17.44;45.89;101103.84;5067565;28;1217;-53
2023/08/12 00:47:04;;;;;;;;;;;;;;;17.39;45.66;101106.59;5094477;28;1083;-52
2023/08/12 00:49:29;;;;;;;;;;;;;;;17.35;45.53;101105.50;5067286;28;1220;-53
2023/08/12 00:51:55;;;;;;;;;;;;;;;17.33;45.21;101107.69;5063440;28;1066;-50
2023/08/12 00:54:21;;;;;;;;;;;;;;;17.29;45.15;101114.81;5091873;28;1114;-52
2023/08/12 00:56:48;;;;;;;;;;;;;;;17.21;44.95;101118.91;5083175;28;1134;-49
2023/08/12 00:59:17;;;;;;;;;;;;;;;17.24;45.04;101125.81;5096396;28;1114;-49
2023/08/12 01:01:44;;;;;;;;;;;;;;;18.08;46.19;101126.53;5065711;28;1968;-52
2023/08/12 01:04:10;;;;;;;;;;;;;;;17.66;46.62;101127.56;5078478;28;1631;-50
2023/08/12 01:06:36;;;;;;;;;;;;;;;17.44;46.24;101125.84;5096261;28;1094;-49
2023/08/12 01:09:05;;;;;;;;;;;;;;;17.40;45.84;101132.16;5096373;28;915;-49
2023/08/12 01:11:42;;;;;;;;;;;;;;;17.40;45.37;101130.25;5091342;28;1027;-52
2023/08/12 01:14:11;;;;;;;;;;;;;;;17.24;45.06;101131.31;5076238;28;1047;-51
2023/08/12 01:16:37;;;;;;;;;;;;;;;18.13;45.86;101121.03;5058874;28;1145;-53
2023/08/12 01:19:04;;;;;;;;;;;;;;;17.60;46.38;101128.66;5072661;28;1099;-52
2023/08/12 01:21:30;;;;;;;;;;;;;;;17.47;46.09;101126.41;5073702;28;1906;-50
2023/08/12 01:23:55;;;;;;;;;;;;;;;17.41;45.29;101123.66;5077646;28;1039;-52
2023/08/12 01:26:21;;;;;;;;;;;;;;;17.34;45.18;101131.31;5066537;28;1143;-50
2023/08/12 01:28:47;;;;;;;;;;;;;;;18.19;45.83;101132.00;5095635;28;1114;-51
2023/08/12 01:31:24;;;;;;;;;;;;;;;17.59;46.56;101133.31;5071357;28;1539;-54
2023/08/12 01:33:52;;;;;;;;;;;;;;;17.59;45.44;101146.25;5060571;28;1047;-52
2023/08/12 01:36:18;;;;;;;;;;;;;;;17.47;45.40;101140.16;5096323;28;1026;-47
2023/08/12 01:38:44;;;;;;;;;;;;;;;17.35;45.09;101138.47;5083256;28;1122;-53
2023/08/12 01:41:10;;;;;;;;;;;;;;;17.36;44.93;101140.13;5069190;28;1143;-51
2023/08/12 01:43:35;;;;;;;;;;;;;;;17.31;44.52;101140.13;5071155;28;1996;-50
2023/08/12 01:46:01;;;;;;;;;;;;;;;17.82;45.46;101141.34;5076334;28;1102;-49
2023/08/12 01:48:26;;;;;;;;;;;;;;;17.87;46.26;101144.09;5092173;28;1054;-50
2023/08/12 01:50:52;;;;;;;;;;;;;;;17.62;46.23;101151.19;5096103;28;1123;-51
2023/08/12 01:53:18;;;;;;;;;;;;;;;18.32;46.42;101133.41;5075571;28;1198;-50
2023/08/12 01:55:43;;;;;;;;;;;;;;;17.86;47.01;101136.94;5084224;28;1042;-52
2023/08/12 01:58:09;;;;;;;;;;;;;;;17.69;46.21;101137.19;5059857;28;1319;-49
2023/08/12 02:00:35;;;;;;;;;;;;;;;17.58;45.85;101142.66;5080575;28;1109;-50
2023/08/12 02:03:00;;;;;;;;;;;;;;;17.48;45.25;101152.81;5081744;28;1885;-52
2023/08/12 02:05:26;;;;;;;;;;;;;;;17.43;45.00;101140.72;5090825;28;1209;-51
2023/08/12 02:07:51;;;;;;;;;;;;;;;17.47;44.71;101142.91;5082046;28;1074;-51
2023/08/12 02:10:18;;;;;;;;;;;;;;;17.43;44.44;101140.72;5072922;28;1300;-50
2023/08/12 02:12:43;;;;;;;;;;;;;;;17.40;44.20;101145.91;5095692;28;1150;-53
2023/08/12 02:15:09;;;;;;;;;;;;;;;18.00;45.75;101143.56;5081588;28;1185;-51
2023/08/12 02:17:34;;;;;;;;;;;;;;;17.58;45.79;101137.16;5083324;28;1018;-52
2023/08/12 02:20:00;;;;;;;;;;;;;;;17.51;45.67;101152.28;5079449;28;1074;-50
2023/08/12 02:22:25;;;;;;;;;;;;;;;17.44;44.89;101147.84;5083560;28;1982;-52
2023/08/12 02:24:51;;;;;;;;;;;;;;;17.39;44.89;101149.75;5088411;28;1111;-50
2023/08/12 02:27:17;;;;;;;;;;;;;;;17.36;44.56;101151.13;5096903;28;1062;-52
2023/08/12 02:29:42;;;;;;;;;;;;;;;17.28;44.53;101151.66;5079693;28;1003;-53
2023/08/12 02:32:08;;;;;;;;;;;;;;;17.24;44.56;101147.78;5079574;28;1027;-48
2023/08/12 02:34:33;;;;;;;;;;;;;;;17.38;44.49;101151.69;5061554;28;1031;-52
2023/08/12 02:36:59;;;;;;;;;;;;;;;17.78;45.61;101158.38;5080296;28;1095;-50
2023/08/12 02:39:24;;;;;;;;;;;;;;;17.41;45.89;101155.81;5081385;28;1391;-49
2023/08/12 02:41:50;;;;;;;;;;;;;;;17.43;45.27;101161.84;5097683;28;1980;-49
2023/08/12 02:44:16;;;;;;;;;;;;;;;17.39;44.92;101161.59;5078992;28;1113;-49
2023/08/12 02:46:42;;;;;;;;;;;;;;;17.34;44.54;101161.56;5079201;28;1066;-52
2023/08/12 02:49:07;;;;;;;;;;;;;;;17.35;44.55;101159.63;5087073;28;1051;-52
2023/08/12 02:51:33;;;;;;;;;;;;;;;18.38;45.60;101166.13;5098791;28;1062;-47
2023/08/12 02:53:58;;;;;;;;;;;;;;;17.75;46.43;101175.44;5099480;28;1045;-53
2023/08/12 02:56:24;;;;;;;;;;;;;;;17.51;45.97;101174.28;5080157;28;1282;-53
2023/08/12 02:58:50;;;;;;;;;;;;;;;17.40;45.71;101168.75;5091231;28;1177;-51
2023/08/12 03:01:15;;;;;;;;;;;;;;;17.38;45.08;101170.91;5092358;28;1119;-51
2023/08/12 03:03:41;;;;;;;;;;;;;;;17.44;44.51;101169.00;5078989;28;1913;-52
2023/08/12 03:06:07;;;;;;;;;;;;;;;17.26;44.79;101159.31;5075175;28;1693;-53
2023/08/12 03:08:32;;;;;;;;;;;;;;;18.08;45.58;101162.31;5094769;28;1145;-49
2023/08/12 03:11:01;;;;;;;;;;;;;;;17.73;46.38;101160.31;5074484;28;1097;-52
2023/08/12 03:13:28;;;;;;;;;;;;;;;17.46;46.16;101166.84;5080242;28;1632;-53
2023/08/12 03:15:54;;;;;;;;;;;;;;;17.43;45.25;101167.34;5075810;28;1253;-53
2023/08/12 03:18:19;;;;;;;;;;;;;;;17.36;45.22;101166.78;5078184;28;1430;-54
2023/08/12 03:20:45;;;;;;;;;;;;;;;17.29;44.80;101156.03;5072494;28;1126;-53
2023/08/12 03:23:11;;;;;;;;;;;;;;;17.24;44.62;101158.78;5077843;28;1901;-52
2023/08/12 03:25:39;;;;;;;;;;;;;;;17.26;44.52;101162.06;5080926;28;1118;-52
2023/08/12 03:28:04;;;;;;;;;;;;;;;17.28;44.34;101155.22;5080059;28;1106;-51
2023/08/12 03:30:31;;;;;;;;;;;;;;;17.82;45.31;101163.34;5060863;28;1323;-52
2023/08/12 03:32:57;;;;;;;;;;;;;;;17.85;46.26;101168.28;5073377;28;1230;-51
2023/08/12 03:35:26;;;;;;;;;;;;;;;17.54;46.17;101158.03;5060264;28;1249;-48
2023/08/12 03:37:53;;;;;;;;;;;;;;;17.49;45.95;101159.94;5078359;28;1122;-49
2023/08/12 03:40:19;;;;;;;;;;;;;;;17.41;45.60;101151.13;5060620;28;1254;-52
2023/08/12 03:42:46;;;;;;;;;;;;;;;17.36;45.44;101153.88;5075090;28;1988;-53
2023/08/12 03:45:11;;;;;;;;;;;;;;;17.30;45.53;101167.88;5089586;28;1037;-55
2023/08/12 03:47:37;;;;;;;;;;;;;;;17.29;45.29;101156.03;5074418;28;1620;-52
2023/08/12 03:50:03;;;;;;;;;;;;;;;18.12;46.71;101157.91;5089874;28;1007;-52
2023/08/12 03:52:31;;;;;;;;;;;;;;;17.63;47.02;101163.84;5066462;28;1219;-52
2023/08/12 03:54:56;;;;;;;;;;;;;;;17.52;46.45;101162.19;5098205;28;1023;-51
2023/08/12 03:57:22;;;;;;;;;;;;;;;17.38;46.15;101170.91;5084547;28;1165;-51
2023/08/12 03:59:48;;;;;;;;;;;;;;;17.42;45.74;101163.78;5066198;28;1150;-47
2023/08/12 04:02:13;;;;;;;;;;;;;;;17.38;45.21;101173.66;5098069;28;1975;-50
2023/08/12 04:04:39;;;;;;;;;;;;;;;17.30;45.29;101163.19;5078778;28;1222;-53
2023/08/12 04:07:04;;;;;;;;;;;;;;;17.25;45.28;101160.41;5098260;28;1033;-53
2023/08/12 04:09:30;;;;;;;;;;;;;;;17.24;44.96;101169.78;5078960;28;1229;-50
2023/08/12 04:11:56;;;;;;;;;;;;;;;18.11;46.49;101178.25;5079452;28;1228;-52
2023/08/12 04:14:21;;;;;;;;;;;;;;;17.66;46.66;101171.56;5079284;28;1157;-53
2023/08/12 04:16:47;;;;;;;;;;;;;;;17.50;46.35;101178.09;5097870;28;1247;-55
2023/08/12 04:19:12;;;;;;;;;;;;;;;17.42;46.10;101177.53;5096938;28;1153;-50
2023/08/12 04:21:38;;;;;;;;;;;;;;;17.99;46.63;101185.13;5078804;28;1901;-52
2023/08/12 04:24:04;;;;;;;;;;;;;;;17.83;46.75;101187.00;5097093;28;1118;-48
2023/08/12 04:26:30;;;;;;;;;;;;;;;17.55;46.51;101187.19;5079297;28;1295;-51
2023/08/12 04:28:56;;;;;;;;;;;;;;;17.58;45.84;101194.09;5078982;28;1118;-55
2023/08/12 04:31:22;;;;;;;;;;;;;;;17.43;45.63;101184.69;5079113;28;1174;-48
2023/08/12 04:33:49;;;;;;;;;;;;;;;17.51;45.19;101193.50;5078396;28;1154;-49
2023/08/12 04:36:16;;;;;;;;;;;;;;;17.60;45.46;101200.16;5078546;28;1976;-51
2023/08/12 04:38:42;;;;;;;;;;;;;;;17.85;46.62;101201.31;5097089;28;1033;-49
2023/08/12 04:41:09;;;;;;;;;;;;;;;17.70;46.42;101205.69;5078607;28;1449;-54
2023/08/12 04:43:35;;;;;;;;;;;;;;;17.57;45.93;101198.78;5070272;28;1986;-51
2023/08/12 04:46:02;;;;;;;;;;;;;;;17.75;45.80;101216.69;5073531;28;1340;-51
2023/08/12 04:48:28;;;;;;;;;;;;;;;18.72;44.84;101211.56;5078264;28;1220;-48
2023/08/12 04:50:54;;;;;;;;;;;;;;;18.38;45.71;101212.94;5078496;28;1848;-54
2023/08/12 04:53:19;;;;;;;;;;;;;;;18.17;46.65;101214.03;5078649;28;1186;-52
2023/08/12 04:55:45;;;;;;;;;;;;;;;18.09;46.79;101223.66;5096274;28;1052;-52
2023/08/12 04:58:11;;;;;;;;;;;;;;;17.97;47.47;101221.19;5078446;28;1197;-52
2023/08/12 05:00:36;;;;;;;;;;;;;;;17.87;47.92;101221.13;5096642;28;1093;-56
2023/08/12 05:03:02;;;;;;;;;;;;;;;17.78;48.29;101223.56;5078562;28;1909;-52
2023/08/12 05:05:28;;;;;;;;;;;;;;;17.75;48.42;101218.59;5078753;28;1154;-53
2023/08/12 05:07:54;;;;;;;;;;;;;;;17.71;48.58;101223.00;5078461;28;1138;-56
2023/08/12 05:10:19;;;;;;;;;;;;;;;17.67;49.03;101222.72;5077392;28;1368;-53
2023/08/12 05:12:46;;;;;;;;;;;;;;;17.62;48.90;101220.75;5097090;28;1082;-51
2023/08/12 05:15:11;;;;;;;;;;;;;;;17.58;49.08;101218.84;5078936;28;1260;-53
2023/08/12 05:17:37;;;;;;;;;;;;;;;17.64;49.35;101220.50;5078770;28;1299;-54
2023/08/12 05:20:04;;;;;;;;;;;;;;;17.49;49.44;101221.28;5078331;28;1213;-54
2023/08/12 05:22:31;;;;;;;;;;;;;;;17.47;49.65;101220.72;5077975;28;1906;-52
2023/08/12 05:24:56;;;;;;;;;;;;;;;17.41;49.92;101224.53;5095670;28;1123;-52
2023/08/12 05:27:22;;;;;;;;;;;;;;;17.38;50.31;101231.41;5096220;28;1425;-50
2023/08/12 05:29:47;;;;;;;;;;;;;;;17.31;50.43;101228.06;5096566;28;1375;-52
2023/08/12 05:32:13;;;;;;;;;;;;;;;17.31;50.63;101217.06;5096407;28;1334;-54
2023/08/12 05:34:38;;;;;;;;;;;;;;;17.30;50.94;101222.84;5097167;28;835;-53
2023/08/12 05:37:04;;;;;;;;;;;;;;;17.31;51.14;101230.81;5100041;28;1075;-52
2023/08/12 05:39:30;;;;;;;;;;;;;;;17.28;51.32;101225.88;5101514;28;1146;-53
2023/08/12 05:41:55;;;;;;;;;;;;;;;17.26;51.45;101230.78;5100426;28;1902;-53
2023/08/12 05:44:21;;;;;;;;;;;;;;;17.21;51.32;101237.09;5100208;28;1083;-51
2023/08/12 05:46:46;;;;;;;;;;;;;;;17.18;51.19;101226.63;5100679;28;1193;-52
2023/08/12 05:49:12;;;;;;;;;;;;;;;17.12;51.82;101232.38;5100026;28;970;-54
2023/08/12 05:51:38;;;;;;;;;;;;;;;17.15;51.45;101238.13;5099848;28;1288;-49
2023/08/12 05:54:04;;;;;;;;;;;;;;;17.10;51.45;101233.44;5087296;28;1158;-52
2023/08/12 05:56:30;;;;;;;;;;;;;;;17.06;51.63;101228.75;5100501;28;1035;-53
2023/08/12 05:58:55;;;;;;;;;;;;;;;17.08;51.82;101227.41;5099820;28;895;-53
2023/08/12 06:01:21;;;;;;;;;;;;;;;17.05;51.78;101221.59;5099847;28;1070;-52
2023/08/12 06:03:47;;;;;;;;;;;;;;;17.00;52.50;101216.91;5099499;28;1913;-53
2023/08/12 06:06:12;;;;;;;;;;;;;;;16.97;52.48;101222.94;5100008;28;1149;-53
2023/08/12 06:08:38;;;;;;;;;;;;;;;17.03;52.31;101223.81;5099975;28;1018;-52
2023/08/12 06:11:03;;;;;;;;;;;;;;;17.02;52.26;101217.47;5099536;28;1114;-51
2023/08/12 06:13:29;;;;;;;;;;;;;;;16.98;52.20;101223.75;5099538;28;1200;-52
2023/08/12 06:15:54;;;;;;;;;;;;;;;16.97;52.18;101225.69;5099791;28;1507;-51
2023/08/12 06:18:20;;;;;;;;;;;;;;;16.96;52.26;101218.53;5099663;28;1119;-49
2023/08/12 06:20:45;;;;;;;;;;;;;;;16.94;52.28;101220.72;5099772;28;1073;-46
2023/08/12 06:23:11;;;;;;;;;;;;;;;16.97;52.34;101220.19;5097900;28;1988;-49
2023/08/12 06:25:37;;;;;;;;;;;;;;;16.87;52.64;101226.44;5099490;28;1150;-50
2023/08/12 06:28:04;;;;;;;;;;;;;;;16.91;52.35;101218.50;5099586;28;1034;-50
2023/08/12 06:30:29;;;;;;;;;;;;;;;16.85;52.47;101216.78;5099265;28;1091;-50
2023/08/12 06:32:55;;;;;;;;;;;;;;;16.85;52.58;101208.56;5081256;28;1114;-54
2023/08/12 06:35:21;;;;;;;;;;;;;;;16.92;53.03;101217.41;5098810;28;1050;-55
2023/08/12 06:37:47;;;;;;;;;;;;;;;16.84;52.86;101204.97;5099890;28;1083;-51
2023/08/12 06:40:12;;;;;;;;;;;;;;;16.80;52.98;101211.25;5099735;28;1170;-53
2023/08/12 06:42:38;;;;;;;;;;;;;;;16.78;53.23;101208.78;5099236;28;1981;-50
2023/08/12 06:45:03;;;;;;;;;;;;;;;16.81;52.76;101215.66;5098471;28;1319;-49
2023/08/12 06:47:29;;;;;;;;;;;;;;;16.77;52.76;101215.34;5105302;28;1465;-52
2023/08/12 06:49:55;;;;;;;;;;;;;;;16.77;52.81;101218.94;5099197;28;1219;-52
2023/08/12 06:52:20;;;;;;;;;;;;;;;16.75;52.75;101215.63;5098805;28;1125;-55
2023/08/12 06:54:46;;;;;;;;;;;;;;;16.75;53.01;101218.38;5099054;28;1169;-52
2023/08/12 06:57:13;;;;;;;;;;;;;;;16.72;52.75;101218.91;5098481;28;1220;-52
2023/08/12 06:59:39;;;;;;;;;;;;;;;16.69;52.94;101211.19;5102735;28;1000;-52
2023/08/12 07:02:04;;;;;;;;;;;;;;;16.69;52.82;101213.94;5098592;28;1909;-52
2023/08/12 07:04:30;;;;;;;;;;;;;;;16.71;53.09;101213.66;5097986;28;1114;-49
2023/08/12 07:06:55;;;;;;;;;;;;;;;16.70;52.74;101207.34;5098367;28;1366;-51
2023/08/12 07:09:21;;;;;;;;;;;;;;;16.69;52.68;101202.97;5098171;28;1074;-51
2023/08/12 07:11:47;;;;;;;;;;;;;;;16.70;52.72;101204.59;5098509;28;859;-49
2023/08/12 07:14:12;;;;;;;;;;;;;;;16.64;53.13;101202.09;5098472;28;1129;-50
2023/08/12 07:16:38;;;;;;;;;;;;;;;16.69;53.00;101208.44;5098378;28;1046;-48
2023/08/12 07:19:03;;;;;;;;;;;;;;;16.65;53.01;101200.97;5098078;28;1058;-50
2023/08/12 07:21:29;;;;;;;;;;;;;;;16.69;53.11;101207.59;5098734;28;1160;-52
2023/08/12 07:23:54;;;;;;;;;;;;;;;16.69;52.95;101205.69;5097577;28;1913;-53
2023/08/12 07:26:20;;;;;;;;;;;;;;;16.67;52.93;101198.81;5098152;28;1123;-52
2023/08/12 07:28:46;;;;;;;;;;;;;;;16.70;52.98;101204.59;5098303;28;1038;-51
2023/08/12 07:31:11;;;;;;;;;;;;;;;16.65;52.95;101207.31;5098253;28;1112;-51
2023/08/12 07:33:37;;;;;;;;;;;;;;;16.63;53.02;101197.69;5098133;28;1170;-51
2023/08/12 07:36:02;;;;;;;;;;;;;;;16.62;52.93;101202.34;5097841;28;875;-49
2023/08/12 07:38:28;;;;;;;;;;;;;;;16.65;53.01;101201.81;5097758;28;1015;-52
2023/08/12 07:40:54;;;;;;;;;;;;;;;16.57;53.24;101199.56;5097603;28;1067;-51
2023/08/12 07:43:19;;;;;;;;;;;;;;;16.63;53.20;101201.25;5097550;28;1910;-54
2023/08/12 07:45:45;;;;;;;;;;;;;;;16.60;53.08;101199.03;5097391;28;1133;-51
2023/08/12 07:48:10;;;;;;;;;;;;;;;16.59;52.89;101192.72;5097501;28;878;-51
2023/08/12 07:50:36;;;;;;;;;;;;;;;16.58;53.09;101190.25;5097789;28;1177;-51
2023/08/12 07:53:01;;;;;;;;;;;;;;;16.60;53.04;101193.53;5097738;28;1121;-52
2023/08/12 07:55:27;;;;;;;;;;;;;;;16.69;55.09;101189.22;5097175;28;1003;-48
2023/08/12 07:57:53;;;;;;;;;;;;;;;16.66;54.77;101191.66;5096950;28;1037;-51
2023/08/12 08:00:19;;;;;;;;;;;;;;;16.70;54.32;101185.38;5072249;28;955;-49
2023/08/12 08:02:44;;;;;;;;;;;;;;;16.62;54.57;101188.63;5090873;28;1986;-55
2023/08/12 08:05:10;;;;;;;;;;;;;;;16.68;54.15;101189.50;5097562;28;1117;-52
2023/08/12 08:07:35;;;;;;;;;;;;;;;16.62;54.36;101188.63;5097223;28;1157;-52
2023/08/12 08:10:01;;;;;;;;;;;;;;;16.65;53.93;101187.25;5083811;28;1067;-52
2023/08/12 08:12:27;;;;;;;;;;;;;;;16.68;54.08;101189.50;5097129;28;940;-52
2023/08/12 08:14:52;;;;;;;;;;;;;;;16.56;54.19;101179.53;5097604;28;1154;-50
2023/08/12 08:17:18;;;;;;;;;;;;;;;16.58;54.09;101182.81;5097112;28;1162;-50
2023/08/12 08:19:43;;;;;;;;;;;;;;;16.55;54.08;101175.13;5084149;28;1062;-52
2023/08/12 08:22:09;;;;;;;;;;;;;;;16.56;54.20;101186.91;5097294;28;1989;-50
2023/08/12 08:24:34;;;;;;;;;;;;;;;16.58;53.85;101184.75;5096580;28;1055;-53
2023/08/12 08:27:00;;;;;;;;;;;;;;;16.59;53.73;101176.25;5096904;28;1026;-48
2023/08/12 08:29:25;;;;;;;;;;;;;;;16.55;53.96;101183.38;5097059;28;1168;-52
2023/08/12 08:31:51;;;;;;;;;;;;;;;16.60;53.47;101174.31;5096924;28;1047;-48
2023/08/12 08:34:17;;;;;;;;;;;;;;;16.57;53.68;101183.09;5096742;28;1011;-50
2023/08/12 08:36:42;;;;;;;;;;;;;;;16.53;53.72;101173.72;5096690;28;849;-49
2023/08/12 08:39:08;;;;;;;;;;;;;;;16.57;53.61;101166.63;5096610;28;1256;-52
2023/08/12 08:41:35;;;;;;;;;;;;;;;16.60;53.44;101168.84;5096925;28;1976;-47
2023/08/12 08:44:02;;;;;;;;;;;;;;;16.61;53.40;101173.25;5096977;28;1043;-50
2023/08/12 08:46:27;;;;;;;;;;;;;;;16.57;53.56;101172.13;5097128;28;1138;-50
2023/08/12 08:48:53;;;;;;;;;;;;;;;16.57;53.79;101177.59;5065277;28;1194;-51
2023/08/12 08:51:19;;;;;;;;;;;;;;;16.57;53.84;101172.94;5096418;28;1108;-50
2023/08/12 08:53:44;;;;;;;;;;;;;;;16.57;53.75;101172.13;5078372;28;1031;-51
2023/08/12 08:56:11;;;;;;;;;;;;;;;16.64;54.09;101178.19;5078790;28;1197;-47
2023/08/12 08:58:37;;;;;;;;;;;;;;;16.81;54.88;101168.97;5093150;28;1322;-50
2023/08/12 09:01:03;;;;;;;;;;;;;;;16.88;55.57;101166.81;5084513;28;863;-48
2023/08/12 09:03:29;;;;;;;;;;;;;;;16.74;55.31;101164.53;5095595;28;1913;-51
2023/08/12 09:05:55;;;;;;;;;;;;;;;16.74;55.19;101172.75;5078156;28;1055;-50
2023/08/12 09:08:20;;;;;;;;;;;;;;;16.72;54.77;101161.22;5095442;28;1031;-49
2023/08/12 09:10:46;;;;;;;;;;;;;;;16.70;54.57;101160.66;5095966;28;1177;-51
2023/08/12 09:13:13;;;;;;;;;;;;;;;16.67;54.53;101161.19;5077914;28;861;-52
2023/08/12 09:15:38;;;;;;;;;;;;;;;16.63;54.66;101160.06;5096149;28;1098;-55
2023/08/12 09:18:05;;;;;;;;;;;;;;;16.62;54.51;101158.44;5095933;28;1125;-50
2023/08/12 09:20:30;;;;;;;;;;;;;;;16.62;54.53;101158.44;5096442;28;1130;-54
2023/08/12 09:22:57;;;;;;;;;;;;;;;16.70;54.36;101163.41;5077591;28;1913;-53
2023/08/12 09:25:23;;;;;;;;;;;;;;;16.64;54.19;101156.22;5088210;28;1035;-54
2023/08/12 09:27:48;;;;;;;;;;;;;;;16.69;54.29;101156.28;5096415;28;1209;-53
2023/08/12 09:30:14;;;;;;;;;;;;;;;16.62;54.27;101157.59;5096170;28;1110;-52
2023/08/12 09:32:40;;;;;;;;;;;;;;;16.62;54.21;101158.44;5096221;28;1108;-55
2023/08/12 09:35:06;;;;;;;;;;;;;;;16.56;54.54;101162.22;5095961;28;1170;-53
2023/08/12 09:37:31;;;;;;;;;;;;;;;16.55;54.36;101164.16;5095979;28;1095;-51
2023/08/12 09:39:58;;;;;;;;;;;;;;;16.56;54.38;101164.97;5095502;28;1023;-53
2023/08/12 09:42:23;;;;;;;;;;;;;;;16.58;54.27;101155.38;5095998;28;1914;-52
2023/08/12 09:44:49;;;;;;;;;;;;;;;16.62;54.24;101157.59;5095778;28;1038;-52
2023/08/12 09:47:14;;;;;;;;;;;;;;;16.58;54.44;101152.63;5095729;28;1081;-55
2023/08/12 09:49:40;;;;;;;;;;;;;;;16.57;54.24;101150.16;5095499;28;1126;-52
2023/08/12 09:52:06;;;;;;;;;;;;;;;16.62;54.08;101147.44;5095390;28;1023;-50
2023/08/12 09:54:32;;;;;;;;;;;;;;;16.61;53.97;101143.03;5095930;28;1468;-53
2023/08/12 09:57:01;;;;;;;;;;;;;;;16.58;54.12;101151.81;5096258;28;1209;-53
2023/08/12 09:59:36;;;;;;;;;;;;;;;16.59;54.12;101143.31;5095046;28;1131;-54
2023/08/12 10:02:06;;;;;;;;;;;;;;;16.58;54.09;101135.34;5083426;28;1983;-52
2023/08/12 10:04:42;;;;;;;;;;;;;;;16.56;54.49;101137.50;5095329;28;1078;-50
2023/08/12 10:07:12;;;;;;;;;;;;;;;16.58;54.41;101140.84;5077458;28;1035;-49
2023/08/12 10:09:38;;;;;;;;;;;;;;;16.62;54.45;101143.84;5095325;28;1156;-52
2023/08/12 10:12:04;;;;;;;;;;;;;;;16.56;54.28;101152.06;5077553;28;1109;-52
2023/08/12 10:14:31;;;;;;;;;;;;;;;16.57;54.11;101133.69;5095287;28;1129;-51
2023/08/12 10:16:56;;;;;;;;;;;;;;;16.54;54.36;101132.28;5078054;28;1114;-49
2023/08/12 10:19:22;;;;;;;;;;;;;;;16.52;54.67;101122.66;5095421;28;1014;-49
2023/08/12 10:21:51;;;;;;;;;;;;;;;16.59;54.37;101126.84;5098057;28;1905;-48
2023/08/12 10:24:17;;;;;;;;;;;;;;;16.64;54.56;101117.78;5080638;28;1097;-51
2023/08/12 10:26:42;;;;;;;;;;;;;;;17.83;53.94;101121.00;5081193;28;1102;-51
2023/08/12 10:29:08;;;;;;;;;;;;;;;17.31;54.86;101123.63;5099172;28;1177;-50
2023/08/12 10:31:33;;;;;;;;;;;;;;;17.05;55.32;101125.44;5099311;28;1188;-53
2023/08/12 10:33:59;;;;;;;;;;;;;;;17.01;55.32;101122.41;5099093;28;1047;-52
2023/08/12 10:36:26;;;;;;;;;;;;;;;16.97;55.11;101124.06;5098129;28;1090;-52
2023/08/12 10:38:51;;;;;;;;;;;;;;;16.94;55.00;101116.31;5098315;28;1232;-50
2023/08/12 10:41:17;;;;;;;;;;;;;;;16.91;55.11;101127.84;5098889;28;1063;-45
2023/08/12 10:43:49;;;;;;;;;;;;;;;16.85;55.05;101123.41;5098793;28;1898;-46
2023/08/12 10:46:34;;;;;;;;;;;;;;;16.85;54.90;101120.66;5098845;28;1105;-44
2023/08/12 10:49:03;;;;;;;;;;;;;;;16.82;54.80;101122.00;5090214;28;913;-46
2023/08/12 10:51:42;;;;;;;;;;;;;;;16.83;54.78;101128.31;5098145;28;1099;-48
2023/08/12 10:54:26;;;;;;;;;;;;;;;16.79;55.07;101129.94;5098643;28;1116;-45
2023/08/12 10:57:05;;;;;;;;;;;;;;;16.81;54.65;101116.78;5098832;28;1054;-47
2023/08/12 10:59:46;;;;;;;;;;;;;;;16.75;54.82;101110.44;5098564;28;1107;-50
2023/08/12 11:02:21;;;;;;;;;;;;;;;16.77;54.87;101105.50;5087359;28;1901;-49
2023/08/12 11:04:54;;;;;;;;;;;;;;;16.75;54.78;101110.44;5098365;28;1029;-50
2023/08/12 11:07:20;;;;;;;;;;;;;;;16.72;54.71;101109.06;5080506;28;1113;-50
2023/08/12 11:09:46;;;;;;;;;;;;;;;16.73;54.63;101099.72;5098614;28;1105;-48
2023/08/12 11:12:17;;;;;;;;;;;;;;;16.69;55.02;101108.75;5098003;28;1119;-47
2023/08/12 11:15:08;;;;;;;;;;;;;;;16.70;54.91;101105.72;5098319;28;1103;-46
2023/08/12 11:17:35;;;;;;;;;;;;;;;16.71;54.77;101098.34;5093463;28;1226;-50
2023/08/12 11:20:01;;;;;;;;;;;;;;;16.73;54.58;101107.97;5098185;28;1058;-47
2023/08/12 11:22:26;;;;;;;;;;;;;;;16.71;54.50;101107.41;5098366;28;1906;-54
2023/08/12 11:24:52;;;;;;;;;;;;;;;16.70;54.49;101108.47;5097782;28;1102;-51
2023/08/12 11:27:18;;;;;;;;;;;;;;;16.69;54.53;101104.09;5098512;28;1370;-49
2023/08/12 11:29:44;;;;;;;;;;;;;;;16.67;54.78;101089.78;5097222;28;1113;-49
2023/08/12 11:32:09;;;;;;;;;;;;;;;16.70;54.72;101094.75;5097239;28;1220;-51
2023/08/12 11:34:35;;;;;;;;;;;;;;;16.71;54.68;101104.66;5080244;28;1098;-47
2023/08/12 11:37:00;;;;;;;;;;;;;;;16.73;54.45;101098.88;5097057;28;1090;-45
2023/08/12 11:39:26;;;;;;;;;;;;;;;16.65;55.01;101097.50;5098266;28;1034;-49
2023/08/12 11:41:52;;;;;;;;;;;;;;;16.63;54.80;101088.69;5098001;28;1905;-51
2023/08/12 11:44:21;;;;;;;;;;;;;;;16.66;54.90;101090.91;5097467;28;1225;-48
2023/08/12 11:46:46;;;;;;;;;;;;;;;16.68;54.83;101096.94;5097742;28;1027;-49
2023/08/12 11:49:12;;;;;;;;;;;;;;;16.69;54.67;101095.88;5097488;28;878;-50
2023/08/12 11:51:37;;;;;;;;;;;;;;;16.67;54.91;101098.03;5097492;28;1161;-48
2023/08/12 11:54:03;;;;;;;;;;;;;;;16.73;54.75;101094.25;5079526;28;1082;-48
2023/08/12 11:56:29;;;;;;;;;;;;;;;16.67;54.78;101088.97;5079565;28;1094;-52
2023/08/12 11:58:54;;;;;;;;;;;;;;;16.69;54.74;101092.28;5079805;28;1146;-48
2023/08/12 12:01:23;;;;;;;;;;;;;;;16.66;54.58;101081.81;5097282;28;1535;-50
2023/08/12 12:03:52;;;;;;;;;;;;;;;16.70;54.67;101078.28;5097651;28;1921;-50
2023/08/12 12:06:17;;;;;;;;;;;;;;;16.70;54.55;101085.69;5097213;28;1149;-50
2023/08/12 12:08:46;;;;;;;;;;;;;;;16.69;54.67;101078.53;5097684;28;1367;-51
2023/08/12 12:11:13;;;;;;;;;;;;;;;16.64;54.84;101082.09;5097241;28;1066;-49
2023/08/12 12:13:39;;;;;;;;;;;;;;;16.65;54.63;101086.50;5096535;28;1050;-47
2023/08/12 12:16:09;;;;;;;;;;;;;;;16.71;54.78;101085.44;5083511;28;1058;-48
2023/08/12 12:18:35;;;;;;;;;;;;;;;16.62;54.76;101081.56;5097079;28;1201;-49
2023/08/12 12:21:00;;;;;;;;;;;;;;;16.62;54.80;101078.81;5096964;28;1062;-46
2023/08/12 12:23:27;;;;;;;;;;;;;;;16.64;54.58;101079.34;5097303;28;2034;-47
2023/08/12 12:26:02;;;;;;;;;;;;;;;16.62;54.67;101084.31;5096655;28;1098;-49
2023/08/12 12:28:27;;;;;;;;;;;;;;;16.61;54.60;101079.91;5097132;28;1153;-48
2023/08/12 12:30:53;;;;;;;;;;;;;;;16.62;54.53;101092.53;5096859;28;1236;-49
2023/08/12 12:33:18;;;;;;;;;;;;;;;16.57;54.71;101084.25;5083219;28;972;-44
2023/08/12 12:35:44;;;;;;;;;;;;;;;16.63;54.44;101093.34;5096597;28;1344;-50
2023/08/12 12:38:09;;;;;;;;;;;;;;;16.65;54.27;101092.00;5094390;28;875;-44
2023/08/12 12:40:35;;;;;;;;;;;;;;;16.62;54.59;101098.03;5094625;28;1149;-46
2023/08/12 12:43:02;;;;;;;;;;;;;;;16.61;54.41;101096.38;5089022;28;1914;-45